createdAt,value
2016-04-21T00:00:13.099Z,0.67
2016-04-21T00:00:26.224Z,0.66
2016-04-21T00:00:54.317Z,0.75
2016-04-21T00:01:07.695Z,0.71
2016-04-21T00:01:20.773Z,0.66
2016-04-21T00:01:33.930Z,0.69
2016-04-21T00:01:47.258Z,0.66
2016-04-21T00:02:00.605Z,0.58
2016-04-21T00:02:13.933Z,0.71
2016-04-21T00:02:27.089Z,0.69
2016-04-21T00:02:40.386Z,0.75
2016-04-21T00:02:53.683Z,0.74
2016-04-21T00:03:07.045Z,0.64
2016-04-21T00:03:20.342Z,0.64
2016-04-21T00:03:33.654Z,0.63
2016-04-21T00:03:46.951Z,0.69
2016-04-21T00:04:00.266Z,0.66
2016-04-21T00:04:13.578Z,0.67
2016-04-21T00:04:26.875Z,0.72
2016-04-21T00:04:40.172Z,0.76
2016-04-21T00:04:53.453Z,0.75
2016-04-21T00:05:06.769Z,0.74
2016-04-21T00:05:20.066Z,0.76
2016-04-21T00:05:37.894Z,0.72
2016-04-21T00:05:51.191Z,0.85
2016-04-21T00:06:04.474Z,0.86
2016-04-21T00:06:17.615Z,0.74
2016-04-21T00:06:30.911Z,0.89
2016-04-21T00:06:44.208Z,0.82
2016-04-21T00:06:57.524Z,0.74
2016-04-21T00:07:10.805Z,0.76
2016-04-21T00:07:24.118Z,0.75
2016-04-21T00:07:37.446Z,0.69
2016-04-21T00:07:50.743Z,0.85
2016-04-21T00:08:04.136Z,0.84
2016-04-21T00:08:17.417Z,0.85
2016-04-21T00:08:30.746Z,0.85
2016-04-21T00:08:44.058Z,1.02
2016-04-21T00:08:57.342Z,1
2016-04-21T00:09:10.639Z,0.99
2016-04-21T00:09:23.952Z,1.08
2016-04-21T00:09:37.264Z,1.12
2016-04-21T00:10:18.002Z,0.94
2016-04-21T00:10:34.361Z,1.03
2016-04-21T00:10:47.673Z,1.02
2016-04-21T00:11:00.988Z,1.02
2016-04-21T00:11:14.269Z,1.04
2016-04-21T00:11:27.566Z,1.03
2016-04-21T00:11:40.879Z,0.96
2016-04-21T00:11:54.191Z,0.99
2016-04-21T00:12:07.491Z,1
2016-04-21T00:12:20.788Z,0.97
2016-04-21T00:12:34.085Z,0.97
2016-04-21T00:12:47.397Z,1
2016-04-21T00:13:00.697Z,1
2016-04-21T00:13:14.025Z,1.02
2016-04-21T00:13:27.510Z,1.03
2016-04-21T00:13:40.806Z,1.02
2016-04-21T00:13:54.103Z,1.08
2016-04-21T00:14:07.418Z,1.03
2016-04-21T00:14:20.730Z,1.04
2016-04-21T00:14:34.027Z,1.12
2016-04-21T00:14:47.308Z,1.12
2016-04-21T00:15:00.624Z,1.07
2016-04-21T00:15:13.952Z,1.08
2016-04-21T00:15:27.296Z,0.99
2016-04-21T00:15:40.608Z,1.08
2016-04-21T00:15:53.905Z,1.03
2016-04-21T00:16:07.204Z,1.12
2016-04-21T00:16:20.517Z,0.94
2016-04-21T00:16:33.813Z,1.1
2016-04-21T00:16:47.110Z,1.12
2016-04-21T00:17:00.426Z,1.2
2016-04-21T00:17:13.707Z,1.2
2016-04-21T00:17:27.004Z,1.11
2016-04-21T00:17:40.301Z,1.32
2016-04-21T00:17:53.598Z,1.28
2016-04-21T00:18:06.741Z,1.38
2016-04-21T00:18:20.226Z,1.4
2016-04-21T00:18:33.507Z,1.4
2016-04-21T00:18:46.819Z,1.36
2016-04-21T00:19:00.135Z,1.33
2016-04-21T00:19:13.447Z,1.33
2016-04-21T00:19:26.729Z,1.46
2016-04-21T00:19:40.010Z,1.5
2016-04-21T00:19:53.307Z,1.56
2016-04-21T00:20:06.497Z,1.57
2016-04-21T00:20:19.810Z,1.56
2016-04-21T00:20:33.357Z,1.56
2016-04-21T00:20:46.669Z,1.51
2016-04-21T00:20:59.968Z,1.57
2016-04-21T00:21:13.249Z,1.66
2016-04-21T00:21:26.546Z,1.65
2016-04-21T00:21:39.859Z,1.68
2016-04-21T00:21:56.156Z,1.72
2016-04-21T00:22:09.471Z,1.84
2016-04-21T00:22:22.784Z,1.78
2016-04-21T00:22:36.440Z,1.76
2016-04-21T00:22:49.721Z,1.82
2016-04-21T00:23:02.973Z,1.82
2016-04-21T00:23:16.161Z,1.83
2016-04-21T00:23:29.473Z,1.79
2016-04-21T00:23:45.770Z,1.86
2016-04-21T00:23:59.054Z,1.82
2016-04-21T00:24:12.335Z,1.83
2016-04-21T00:24:25.648Z,1.79
2016-04-21T00:24:53.085Z,1.92
2016-04-21T00:25:06.384Z,1.97
2016-04-21T00:25:19.666Z,1.97
2016-04-21T00:25:33.197Z,1.92
2016-04-21T00:25:45.775Z,1.87
2016-04-21T00:26:13.231Z,1.98
2016-04-21T00:26:26.544Z,1.97
2016-04-21T00:27:07.297Z,1.94
2016-04-21T00:27:20.593Z,1.9
2016-04-21T00:27:33.890Z,1.94
2016-04-21T00:27:47.187Z,2.01
2016-04-21T00:28:00.518Z,1.97
2016-04-21T00:28:13.815Z,2.02
2016-04-21T00:28:27.128Z,2.05
2016-04-21T00:28:40.471Z,1.97
2016-04-21T00:28:53.815Z,2.02
2016-04-21T00:29:07.115Z,2.09
2016-04-21T00:29:20.428Z,2.08
2016-04-21T00:29:33.724Z,2.04
2016-04-21T00:29:47.006Z,2.06
2016-04-21T00:30:00.320Z,2.08
2016-04-21T00:30:28.008Z,1.98
2016-04-21T00:30:41.305Z,2.06
2016-04-21T00:30:54.617Z,1.9
2016-04-21T00:31:07.933Z,1.92
2016-04-21T00:31:21.261Z,1.97
2016-04-21T00:31:34.558Z,2.08
2016-04-21T00:31:47.870Z,2.04
2016-04-21T00:32:01.200Z,1.94
2016-04-21T00:32:14.513Z,2.05
2016-04-21T00:32:27.794Z,1.98
2016-04-21T00:32:40.950Z,2.01
2016-04-21T00:32:54.263Z,2.08
2016-04-21T00:33:07.578Z,2.04
2016-04-21T00:33:20.875Z,2.09
2016-04-21T00:33:34.172Z,2.05
2016-04-21T00:33:47.453Z,2.12
2016-04-21T00:34:00.769Z,2.11
2016-04-21T00:34:14.050Z,2.02
2016-04-21T00:34:27.362Z,2.08
2016-04-21T00:34:40.659Z,2.09
2016-04-21T00:34:53.956Z,2.04
2016-04-21T00:35:07.286Z,2.09
2016-04-21T00:35:20.583Z,2.08
2016-04-21T00:35:37.036Z,2.06
2016-04-21T00:35:50.318Z,2.04
2016-04-21T00:36:03.618Z,2.08
2016-04-21T00:36:16.775Z,2.09
2016-04-21T00:36:30.056Z,2.08
2016-04-21T00:36:43.556Z,2.06
2016-04-21T00:37:24.324Z,2.18
2016-04-21T00:37:37.636Z,2.22
2016-04-21T00:37:50.933Z,2.12
2016-04-21T00:38:03.966Z,2.12
2016-04-21T00:38:17.279Z,2.16
2016-04-21T00:38:30.763Z,2.11
2016-04-21T00:38:44.044Z,2.18
2016-04-21T00:38:57.341Z,2.18
2016-04-21T00:39:10.845Z,2.12
2016-04-21T00:39:24.158Z,2.13
2016-04-21T00:39:37.455Z,2.15
2016-04-21T00:39:50.767Z,2.13
2016-04-21T00:40:04.050Z,2.12
2016-04-21T00:40:17.363Z,2.06
2016-04-21T00:40:30.660Z,2.05
2016-04-21T00:40:44.394Z,2.04
2016-04-21T00:41:11.865Z,1.93
2016-04-21T00:41:25.162Z,2.04
2016-04-21T00:41:52.630Z,2.04
2016-04-21T00:42:05.930Z,2.01
2016-04-21T00:42:19.212Z,2.11
2016-04-21T00:42:32.493Z,2.04
2016-04-21T00:42:45.790Z,2.01
2016-04-21T00:42:59.090Z,2.02
2016-04-21T00:43:12.402Z,2.08
2016-04-21T00:43:25.699Z,2.04
2016-04-21T00:43:39.230Z,2.08
2016-04-21T00:43:52.527Z,2.01
2016-04-21T00:44:05.843Z,2.06
2016-04-21T00:44:19.139Z,2.11
2016-04-21T00:44:32.436Z,2.01
2016-04-21T00:44:45.733Z,2.05
2016-04-21T00:44:59.017Z,2.04
2016-04-21T00:45:12.314Z,2.08
2016-04-21T00:45:25.611Z,2.06
2016-04-21T00:45:39.205Z,2.05
2016-04-21T00:45:52.533Z,2.06
2016-04-21T00:46:05.832Z,2.09
2016-04-21T00:46:19.129Z,2.05
2016-04-21T00:46:32.441Z,2.09
2016-04-21T00:46:45.754Z,2.01
2016-04-21T00:46:59.054Z,2.09
2016-04-21T00:47:11.616Z,2.06
2016-04-21T00:47:24.929Z,2.05
2016-04-21T00:47:38.460Z,1.98
2016-04-21T00:47:51.788Z,2.05
2016-04-21T00:48:05.087Z,1.97
2016-04-21T00:48:32.540Z,1.92
2016-04-21T00:48:45.837Z,2.04
2016-04-21T00:48:59.137Z,1.94
2016-04-21T00:49:12.481Z,2.01
2016-04-21T00:49:25.793Z,2.05
2016-04-21T00:49:39.074Z,2.02
2016-04-21T00:49:52.356Z,2.04
2016-04-21T00:50:05.640Z,1.93
2016-04-21T00:50:18.952Z,1.94
2016-04-21T00:50:32.734Z,1.9
2016-04-21T00:50:45.874Z,1.79
2016-04-21T00:50:59.173Z,1.89
2016-04-21T00:51:12.486Z,1.89
2016-04-21T00:51:25.798Z,1.87
2016-04-21T00:51:39.095Z,1.86
2016-04-21T00:51:52.423Z,1.83
2016-04-21T00:52:05.927Z,1.79
2016-04-21T00:52:19.240Z,1.87
2016-04-21T00:52:46.693Z,1.84
2016-04-21T00:52:59.867Z,1.75
2016-04-21T00:53:13.179Z,1.69
2016-04-21T00:53:26.476Z,1.71
2016-04-21T00:53:39.976Z,1.75
2016-04-21T00:53:53.288Z,1.74
2016-04-21T00:54:06.588Z,1.75
2016-04-21T00:54:19.885Z,1.76
2016-04-21T00:54:33.198Z,1.82
2016-04-21T00:54:46.510Z,1.74
2016-04-21T00:54:59.998Z,1.75
2016-04-21T00:55:13.279Z,1.82
2016-04-21T00:55:26.607Z,1.83
2016-04-21T00:55:39.919Z,1.79
2016-04-21T00:55:53.216Z,1.82
2016-04-21T00:56:06.515Z,1.93
2016-04-21T00:56:19.828Z,1.93
2016-04-21T00:56:33.109Z,1.94
2016-04-21T00:56:46.406Z,1.92
2016-04-21T00:56:59.721Z,1.9
2016-04-21T00:57:13.018Z,1.82
2016-04-21T00:57:26.331Z,1.86
2016-04-21T00:57:53.815Z,1.66
2016-04-21T00:58:07.114Z,1.61
2016-04-21T00:58:20.614Z,1.68
2016-04-21T00:58:33.911Z,1.51
2016-04-21T00:58:47.223Z,1.51
2016-04-21T00:59:00.539Z,1.42
2016-04-21T00:59:13.820Z,1.48
2016-04-21T00:59:27.133Z,1.47
2016-04-21T00:59:40.414Z,1.4
2016-04-21T00:59:53.570Z,1.4
2016-04-21T01:00:06.870Z,1.42
2016-04-21T01:00:20.182Z,1.42
2016-04-21T01:00:36.495Z,1.46
2016-04-21T01:00:49.792Z,1.42
2016-04-21T01:01:03.092Z,1.36
2016-04-21T01:01:16.389Z,1.36
2016-04-21T01:01:29.904Z,1.35
2016-04-21T01:01:43.201Z,1.4
2016-04-21T01:01:56.482Z,1.42
2016-04-21T01:02:09.797Z,1.42
2016-04-21T01:02:23.109Z,1.35
2016-04-21T01:02:36.406Z,1.33
2016-04-21T01:02:49.734Z,1.42
2016-04-21T01:03:03.019Z,1.4
2016-04-21T01:03:16.347Z,1.2
2016-04-21T01:03:29.675Z,1.35
2016-04-21T01:03:42.956Z,1.32
2016-04-21T01:03:56.269Z,1.28
2016-04-21T01:04:09.568Z,1.3
2016-04-21T01:04:22.880Z,1.32
2016-04-21T01:04:36.177Z,1.3
2016-04-21T01:04:49.490Z,1.26
2016-04-21T01:05:03.038Z,1.26
2016-04-21T01:05:16.335Z,1.32
2016-04-21T01:05:29.819Z,1.32
2016-04-21T01:05:43.116Z,1.46
2016-04-21T01:05:56.256Z,1.48
2016-04-21T01:06:09.618Z,1.51
2016-04-21T01:06:22.915Z,1.48
2016-04-21T01:06:36.227Z,1.46
2016-04-21T01:07:03.727Z,1.46
2016-04-21T01:07:17.024Z,1.46
2016-04-21T01:07:30.321Z,1.53
2016-04-21T01:07:43.634Z,1.47
2016-04-21T01:07:56.931Z,1.44
2016-04-21T01:08:10.150Z,1.46
2016-04-21T01:08:23.432Z,1.38
2016-04-21T01:08:36.729Z,1.36
2016-04-21T01:08:50.010Z,1.28
2016-04-21T01:09:03.345Z,1.3
2016-04-21T01:09:16.673Z,1.22
2016-04-21T01:09:29.970Z,1.32
2016-04-21T01:09:57.438Z,1.36
2016-04-21T01:10:24.958Z,1.32
2016-04-21T01:10:39.193Z,1.28
2016-04-21T01:10:52.490Z,1.26
2016-04-21T01:11:05.806Z,1.28
2016-04-21T01:11:19.118Z,1.32
2016-04-21T01:11:32.384Z,1.35
2016-04-21T01:11:45.696Z,1.3
2016-04-21T01:11:59.043Z,1.33
2016-04-21T01:12:12.325Z,1.3
2016-04-21T01:12:25.637Z,1.3
2016-04-21T01:12:38.934Z,1.35
2016-04-21T01:12:52.231Z,1.24
2016-04-21T01:13:05.547Z,1.22
2016-04-21T01:13:18.844Z,1.26
2016-04-21T01:13:32.156Z,1.21
2016-04-21T01:14:12.937Z,1.2
2016-04-21T01:14:26.234Z,1.22
2016-04-21T01:14:39.562Z,1.21
2016-04-21T01:14:52.843Z,1.3
2016-04-21T01:15:06.164Z,1.22
2016-04-21T01:15:19.321Z,1.21
2016-04-21T01:15:46.805Z,1.21
2016-04-21T01:16:00.110Z,1.24
2016-04-21T01:16:13.438Z,1.22
2016-04-21T01:16:26.751Z,1.21
2016-04-21T01:16:40.063Z,1.17
2016-04-21T01:16:53.391Z,1.15
2016-04-21T01:17:06.713Z,1.18
2016-04-21T01:17:20.025Z,1.14
2016-04-21T01:17:33.338Z,1.15
2016-04-21T01:17:46.619Z,1.21
2016-04-21T01:17:59.924Z,1.24
2016-04-21T01:18:40.861Z,1.15
2016-04-21T01:18:54.174Z,1.1
2016-04-21T01:19:07.479Z,1.2
2016-04-21T01:19:20.791Z,1.24
2016-04-21T01:20:02.421Z,1.33
2016-04-21T01:20:15.718Z,1.28
2016-04-21T01:20:29.015Z,1.26
2016-04-21T01:20:42.343Z,1.24
2016-04-21T01:20:55.640Z,1.28
2016-04-21T01:21:08.925Z,1.28
2016-04-21T01:21:22.441Z,1.29
2016-04-21T01:21:35.753Z,1.3
2016-04-21T01:21:49.050Z,1.32
2016-04-21T01:22:02.123Z,1.35
2016-04-21T01:22:15.123Z,1.28
2016-04-21T01:22:28.404Z,1.29
2016-04-21T01:22:41.716Z,1.29
2016-04-21T01:22:55.060Z,1.33
2016-04-21T01:23:08.252Z,1.24
2016-04-21T01:23:21.564Z,1.21
2016-04-21T01:23:34.845Z,1.24
2016-04-21T01:23:48.158Z,1.24
2016-04-21T01:24:01.475Z,1.22
2016-04-21T01:24:14.788Z,1.28
2016-04-21T01:24:28.100Z,1.32
2016-04-21T01:24:41.382Z,1.33
2016-04-21T01:24:54.663Z,1.32
2016-04-21T01:25:07.964Z,1.32
2016-04-21T01:25:21.276Z,1.26
2016-04-21T01:25:34.823Z,1.3
2016-04-21T01:25:48.104Z,1.32
2016-04-21T01:26:01.420Z,1.24
2016-04-21T01:26:14.685Z,1.32
2016-04-21T01:26:27.998Z,1.3
2016-04-21T01:26:41.310Z,1.33
2016-04-21T01:26:54.607Z,1.35
2016-04-21T01:27:07.893Z,1.38
2016-04-21T01:27:21.189Z,1.35
2016-04-21T01:27:34.486Z,1.26
2016-04-21T01:27:47.783Z,1.26
2016-04-21T01:28:01.083Z,1.26
2016-04-21T01:28:14.396Z,1.3
2016-04-21T01:28:27.692Z,1.24
2016-04-21T01:28:40.974Z,1.24
2016-04-21T01:28:54.271Z,1.35
2016-04-21T01:29:07.570Z,1.32
2016-04-21T01:29:20.867Z,1.32
2016-04-21T01:29:34.164Z,1.29
2016-04-21T01:29:47.445Z,1.36
2016-04-21T01:30:00.761Z,1.35
2016-04-21T01:30:14.058Z,1.35
2016-04-21T01:30:27.417Z,1.36
2016-04-21T01:30:40.714Z,1.33
2016-04-21T01:30:54.011Z,1.32
2016-04-21T01:31:07.311Z,1.29
2016-04-21T01:31:20.608Z,1.29
2016-04-21T01:31:33.936Z,1.28
2016-04-21T01:31:47.233Z,1.33
2016-04-21T01:32:00.533Z,1.35
2016-04-21T01:32:13.814Z,1.29
2016-04-21T01:32:27.111Z,1.24
2016-04-21T01:32:40.423Z,1.4
2016-04-21T01:32:53.751Z,1.36
2016-04-21T01:33:07.051Z,1.32
2016-04-21T01:33:20.332Z,1.36
2016-04-21T01:33:33.817Z,1.47
2016-04-21T01:33:47.098Z,1.5
2016-04-21T01:34:00.414Z,1.46
2016-04-21T01:34:13.742Z,1.42
2016-04-21T01:34:27.054Z,1.44
2016-04-21T01:34:40.351Z,1.44
2016-04-21T01:34:53.632Z,1.44
2016-04-21T01:35:06.948Z,1.48
2016-04-21T01:35:20.245Z,1.51
2016-04-21T01:35:33.573Z,1.5
2016-04-21T01:35:46.885Z,1.57
2016-04-21T01:36:00.170Z,1.56
2016-04-21T01:36:13.482Z,1.58
2016-04-21T01:36:54.216Z,1.65
2016-04-21T01:37:07.531Z,1.71
2016-04-21T01:37:20.125Z,1.64
2016-04-21T01:37:33.422Z,1.66
2016-04-21T01:37:46.718Z,1.75
2016-04-21T01:38:00.051Z,1.82
2016-04-21T01:38:13.082Z,1.78
2016-04-21T01:38:26.254Z,1.82
2016-04-21T01:38:39.551Z,1.9
2016-04-21T01:38:52.863Z,1.86
2016-04-21T01:39:06.162Z,1.83
2016-04-21T01:39:19.490Z,1.94
2016-04-21T01:39:32.803Z,1.9
2016-04-21T01:39:46.115Z,1.92
2016-04-21T01:39:59.599Z,1.92
2016-04-21T01:40:12.899Z,1.97
2016-04-21T01:40:26.821Z,1.94
2016-04-21T01:40:40.649Z,1.98
2016-04-21T01:40:54.134Z,1.93
2016-04-21T01:41:07.433Z,1.89
2016-04-21T01:41:20.714Z,2.04
2016-04-21T01:41:34.026Z,1.98
2016-04-21T01:41:47.323Z,2.01
2016-04-21T01:42:00.623Z,1.98
2016-04-21T01:42:13.936Z,2.09
2016-04-21T01:42:27.217Z,2.02
2016-04-21T01:42:40.545Z,2.08
2016-04-21T01:42:53.873Z,2.01
2016-04-21T01:43:07.156Z,2.04
2016-04-21T01:43:20.484Z,1.98
2016-04-21T01:43:33.813Z,2.11
2016-04-21T01:43:47.109Z,2.09
2016-04-21T01:44:00.269Z,2.06
2016-04-21T01:44:13.581Z,2.02
2016-04-21T01:44:26.894Z,2.05
2016-04-21T01:44:40.206Z,2.06
2016-04-21T01:44:53.519Z,2.05
2016-04-21T01:45:06.819Z,2.16
2016-04-21T01:45:20.115Z,2.12
2016-04-21T01:45:33.459Z,2.06
2016-04-21T01:45:46.772Z,2.09
2016-04-21T01:46:00.087Z,2.12
2016-04-21T01:46:13.384Z,2.13
2016-04-21T01:46:26.665Z,2.15
2016-04-21T01:46:39.978Z,2.22
2016-04-21T01:46:53.275Z,2.12
2016-04-21T01:47:06.590Z,2.13
2016-04-21T01:47:19.903Z,2.06
2016-04-21T01:47:33.184Z,2.06
2016-04-21T01:48:00.655Z,2.12
2016-04-21T01:48:13.967Z,2.09
2016-04-21T01:48:27.092Z,2.08
2016-04-21T01:48:40.389Z,1.97
2016-04-21T01:48:53.717Z,1.98
2016-04-21T01:49:07.017Z,1.98
2016-04-21T01:49:20.361Z,1.9
2016-04-21T01:49:33.658Z,2.02
2016-04-21T01:49:46.955Z,1.94
2016-04-21T01:50:00.222Z,1.9
2016-04-21T01:50:13.550Z,2.08
2016-04-21T01:50:27.519Z,2.02
2016-04-21T01:51:08.319Z,2.09
2016-04-21T01:51:21.616Z,2.02
2016-04-21T01:51:34.928Z,2.05
2016-04-21T01:51:48.241Z,2.05
2016-04-21T01:52:01.541Z,2.11
2016-04-21T01:52:14.838Z,2.05
2016-04-21T01:52:28.134Z,2.06
2016-04-21T01:52:41.431Z,2.05
2016-04-21T01:52:54.759Z,2.13
2016-04-21T01:53:08.091Z,2.12
2016-04-21T01:53:21.434Z,2.09
2016-04-21T01:53:34.716Z,2.09
2016-04-21T01:53:47.997Z,2.22
2016-04-21T01:54:01.281Z,2.13
2016-04-21T01:54:14.594Z,2.18
2016-04-21T01:54:28.125Z,2.2
2016-04-21T01:54:41.437Z,2.12
2016-04-21T01:54:54.969Z,2.2
2016-04-21T01:55:08.267Z,2.13
2016-04-21T01:55:21.564Z,2.15
2016-04-21T01:55:37.924Z,2.08
2016-04-21T01:56:05.380Z,2.22
2016-04-21T01:56:18.677Z,2.18
2016-04-21T01:56:32.302Z,2.16
2016-04-21T01:56:45.599Z,2.18
2016-04-21T01:56:58.911Z,2.12
2016-04-21T01:57:12.210Z,2.09
2016-04-21T01:57:25.522Z,2.08
2016-04-21T01:57:39.022Z,2.05
2016-04-21T01:57:52.319Z,2.09
2016-04-21T01:58:05.650Z,2.08
2016-04-21T01:58:18.963Z,2.06
2016-04-21T01:58:32.260Z,2.05
2016-04-21T01:58:45.572Z,2.08
2016-04-21T01:58:58.854Z,2.02
2016-04-21T01:59:12.371Z,2.05
2016-04-21T01:59:25.699Z,2.01
2016-04-21T01:59:39.012Z,1.94
2016-04-21T01:59:52.324Z,2.02
2016-04-21T02:00:05.624Z,2.04
2016-04-21T02:00:18.921Z,2.01
2016-04-21T02:00:32.452Z,2.04
2016-04-21T02:00:45.749Z,1.93
2016-04-21T02:00:59.062Z,2.11
2016-04-21T02:01:12.362Z,2.05
2016-04-21T02:01:25.674Z,2.06
2016-04-21T02:01:39.018Z,2.13
2016-04-21T02:01:52.315Z,2.08
2016-04-21T02:02:05.646Z,2.06
2016-04-21T02:02:18.974Z,2.12
2016-04-21T02:02:32.474Z,2.12
2016-04-21T02:02:45.771Z,2.15
2016-04-21T02:02:59.271Z,2.22
2016-04-21T02:03:12.618Z,2.09
2016-04-21T02:03:25.914Z,2.15
2016-04-21T02:03:39.227Z,2.12
2016-04-21T02:03:52.539Z,2.11
2016-04-21T02:04:05.870Z,2.09
2016-04-21T02:04:19.166Z,2.09
2016-04-21T02:04:32.479Z,2.11
2016-04-21T02:04:45.807Z,2.09
2016-04-21T02:04:59.354Z,2.04
2016-04-21T02:05:12.732Z,2.04
2016-04-21T02:05:26.857Z,2.08
2016-04-21T02:05:40.248Z,2.09
2016-04-21T02:06:21.203Z,2.11
2016-04-21T02:06:34.578Z,2.06
2016-04-21T02:06:47.953Z,2.02
2016-04-21T02:07:01.316Z,2.08
2016-04-21T02:07:14.925Z,2.04
2016-04-21T02:07:28.347Z,2.05
2016-04-21T02:07:41.722Z,2.05
2016-04-21T02:07:55.113Z,2.08
2016-04-21T02:08:08.521Z,2.09
2016-04-21T02:08:21.802Z,2.06
2016-04-21T02:08:35.193Z,2.11
2016-04-21T02:08:48.552Z,2.06
2016-04-21T02:09:01.962Z,2.09
2016-04-21T02:09:15.337Z,2.06
2016-04-21T02:09:28.727Z,2.08
2016-04-21T02:09:42.102Z,2.22
2016-04-21T02:09:55.493Z,2.16
2016-04-21T02:10:08.870Z,2.22
2016-04-21T02:10:22.261Z,2.09
2016-04-21T02:10:35.839Z,2.18
2016-04-21T02:10:49.198Z,2.2
2016-04-21T02:11:02.545Z,2.18
2016-04-21T02:11:15.904Z,2.15
2016-04-21T02:11:29.264Z,2.2
2016-04-21T02:11:42.623Z,2.16
2016-04-21T02:11:55.951Z,2.22
2016-04-21T02:12:09.312Z,2.18
2016-04-21T02:12:22.719Z,2.18
2016-04-21T02:12:36.094Z,2.11
2016-04-21T02:12:49.437Z,2.12
2016-04-21T02:13:02.785Z,2.2
2016-04-21T02:13:16.145Z,2.2
2016-04-21T02:13:29.520Z,2.22
2016-04-21T02:13:42.863Z,2.15
2016-04-21T02:13:56.207Z,2.2
2016-04-21T02:14:09.507Z,2.22
2016-04-21T02:14:22.851Z,2.15
2016-04-21T02:14:36.226Z,2.2
2016-04-21T02:14:49.585Z,2.16
2016-04-21T02:15:02.931Z,2.22
2016-04-21T02:15:16.462Z,2.2
2016-04-21T02:15:32.821Z,2.18
2016-04-21T02:15:45.993Z,2.13
2016-04-21T02:15:59.321Z,2.24
2016-04-21T02:16:12.667Z,2.24
2016-04-21T02:16:25.980Z,2.16
2016-04-21T02:16:39.292Z,2.23
2016-04-21T02:16:52.636Z,2.26
2016-04-21T02:17:05.983Z,2.22
2016-04-21T02:17:19.295Z,2.2
2016-04-21T02:17:46.748Z,2.18
2016-04-21T02:18:00.061Z,2.2
2016-04-21T02:18:41.094Z,2.24
2016-04-21T02:18:54.422Z,2.22
2016-04-21T02:19:07.925Z,2.26
2016-04-21T02:19:21.425Z,2.15
2016-04-21T02:19:34.769Z,2.26
2016-04-21T02:19:48.097Z,2.22
2016-04-21T02:20:01.410Z,2.23
2016-04-21T02:20:14.710Z,2.23
2016-04-21T02:20:42.414Z,2.3
2016-04-21T02:21:09.884Z,2.22
2016-04-21T02:21:23.212Z,2.24
2016-04-21T02:21:50.541Z,2.18
2016-04-21T02:22:03.853Z,2.3
2016-04-21T02:22:17.152Z,2.2
2016-04-21T02:22:30.496Z,2.3
2016-04-21T02:22:43.793Z,2.22
2016-04-21T02:22:57.105Z,2.26
2016-04-21T02:23:10.421Z,2.26
2016-04-21T02:23:23.671Z,2.26
2016-04-21T02:23:37.030Z,2.3
2016-04-21T02:24:17.815Z,2.18
2016-04-21T02:24:31.128Z,2.22
2016-04-21T02:24:44.440Z,2.22
2016-04-21T02:24:57.815Z,2.26
2016-04-21T02:25:11.130Z,2.22
2016-04-21T02:25:27.536Z,2.2
2016-04-21T02:25:40.833Z,2.18
2016-04-21T02:25:54.145Z,2.29
2016-04-21T02:26:07.476Z,2.2
2016-04-21T02:26:20.789Z,2.22
2016-04-21T02:26:34.133Z,2.2
2016-04-21T02:26:47.445Z,2.2
2016-04-21T02:27:00.961Z,2.24
2016-04-21T02:27:14.260Z,2.22
2016-04-21T02:27:27.588Z,2.16
2016-04-21T02:27:40.900Z,2.2
2016-04-21T02:27:54.244Z,2.2
2016-04-21T02:28:07.560Z,2.18
2016-04-21T02:28:20.888Z,2.16
2016-04-21T02:28:34.185Z,2.23
2016-04-21T02:28:47.497Z,2.18
2016-04-21T02:29:00.810Z,2.18
2016-04-21T02:29:14.156Z,2.15
2016-04-21T02:29:27.484Z,2.27
2016-04-21T02:29:40.813Z,2.22
2016-04-21T02:29:54.141Z,2.29
2016-04-21T02:30:07.471Z,2.24
2016-04-21T02:30:20.830Z,2.23
2016-04-21T02:30:48.315Z,2.23
2016-04-21T02:31:01.658Z,2.18
2016-04-21T02:31:14.818Z,2.16
2016-04-21T02:31:28.161Z,2.2
2016-04-21T02:31:41.458Z,2.16
2016-04-21T02:31:54.802Z,2.18
2016-04-21T02:32:08.132Z,2.22
2016-04-21T02:32:21.288Z,2.2
2016-04-21T02:32:34.616Z,2.16
2016-04-21T02:32:47.945Z,2.16
2016-04-21T02:33:01.241Z,2.23
2016-04-21T02:33:14.588Z,2.22
2016-04-21T02:33:27.916Z,2.22
2016-04-21T02:33:41.244Z,2.22
2016-04-21T02:33:54.557Z,2.23
2016-04-21T02:34:07.872Z,2.22
2016-04-21T02:34:21.404Z,2.26
2016-04-21T02:34:34.919Z,2.3
2016-04-21T02:34:48.263Z,2.31
2016-04-21T02:35:01.591Z,2.22
2016-04-21T02:35:14.937Z,2.24
2016-04-21T02:35:28.671Z,2.27
2016-04-21T02:35:41.999Z,2.26
2016-04-21T02:35:55.343Z,2.31
2016-04-21T02:36:08.644Z,2.34
2016-04-21T02:36:21.972Z,2.36
2016-04-21T02:36:35.472Z,2.38
2016-04-21T02:36:48.800Z,2.4
2016-04-21T02:37:02.175Z,2.24
2016-04-21T02:37:15.334Z,2.27
2016-04-21T02:37:28.662Z,2.34
2016-04-21T02:37:41.990Z,2.31
2016-04-21T02:37:55.302Z,2.3
2016-04-21T02:38:08.649Z,2.33
2016-04-21T02:38:21.868Z,2.33
2016-04-21T02:38:35.180Z,2.33
2016-04-21T02:38:51.508Z,2.31
2016-04-21T02:39:04.852Z,2.3
2016-04-21T02:39:18.168Z,2.34
2016-04-21T02:39:31.496Z,2.36
2016-04-21T02:39:44.668Z,2.26
2016-04-21T02:39:57.965Z,2.38
2016-04-21T02:40:11.279Z,2.31
2016-04-21T02:40:24.685Z,2.36
2016-04-21T02:40:38.310Z,2.38
2016-04-21T02:40:51.638Z,2.38
2016-04-21T02:41:04.951Z,2.41
2016-04-21T02:41:18.282Z,2.49
2016-04-21T02:41:31.626Z,2.4
2016-04-21T02:41:44.970Z,2.49
2016-04-21T02:41:58.282Z,2.48
2016-04-21T02:42:11.612Z,2.48
2016-04-21T02:42:24.909Z,2.48
2016-04-21T02:42:38.425Z,2.54
2016-04-21T02:42:51.737Z,2.55
2016-04-21T02:43:05.097Z,2.59
2016-04-21T02:43:18.428Z,2.55
2016-04-21T02:43:31.740Z,2.59
2016-04-21T02:43:59.209Z,2.51
2016-04-21T02:44:12.556Z,2.62
2016-04-21T02:44:25.884Z,2.55
2016-04-21T02:44:39.243Z,2.54
2016-04-21T02:44:52.587Z,2.54
2016-04-21T02:45:05.901Z,2.59
2016-04-21T02:45:19.198Z,2.58
2016-04-21T02:45:32.948Z,2.55
2016-04-21T02:45:46.495Z,2.58
2016-04-21T02:45:59.823Z,2.67
2016-04-21T02:46:13.155Z,2.58
2016-04-21T02:46:26.484Z,2.58
2016-04-21T02:46:39.796Z,2.62
2016-04-21T02:46:53.140Z,2.6
2016-04-21T02:47:06.470Z,2.58
2016-04-21T02:47:19.814Z,2.58
2016-04-21T02:47:33.126Z,2.62
2016-04-21T02:47:46.470Z,2.59
2016-04-21T02:47:59.798Z,2.65
2016-04-21T02:48:13.129Z,2.58
2016-04-21T02:48:26.457Z,2.55
2016-04-21T02:48:39.817Z,2.55
2016-04-21T02:48:53.129Z,2.62
2016-04-21T02:49:06.459Z,2.55
2016-04-21T02:49:19.975Z,2.62
2016-04-21T02:49:33.319Z,2.58
2016-04-21T02:49:46.647Z,2.55
2016-04-21T02:49:59.991Z,2.59
2016-04-21T02:50:13.306Z,2.58
2016-04-21T02:50:40.790Z,2.67
2016-04-21T02:50:54.103Z,2.55
2016-04-21T02:51:07.434Z,2.59
2016-04-21T02:51:20.762Z,2.55
2016-04-21T02:51:34.090Z,2.55
2016-04-21T02:51:47.403Z,2.58
2016-04-21T02:52:00.731Z,2.62
2016-04-21T02:52:14.061Z,2.55
2016-04-21T02:52:41.545Z,2.52
2016-04-21T02:52:54.905Z,2.55
2016-04-21T02:53:08.439Z,2.59
2016-04-21T02:53:21.814Z,2.55
2016-04-21T02:53:35.205Z,2.55
2016-04-21T02:53:48.517Z,2.55
2016-04-21T02:54:01.830Z,2.59
2016-04-21T02:54:15.161Z,2.55
2016-04-21T02:54:28.676Z,2.54
2016-04-21T02:54:42.005Z,2.55
2016-04-21T02:54:55.551Z,2.59
2016-04-21T02:55:08.866Z,2.48
2016-04-21T02:55:22.194Z,2.59
2016-04-21T02:55:35.741Z,2.51
2016-04-21T02:56:03.194Z,2.52
2016-04-21T02:56:16.556Z,2.59
2016-04-21T02:56:29.869Z,2.6
2016-04-21T02:56:43.213Z,2.52
2016-04-21T02:56:56.525Z,2.59
2016-04-21T02:57:09.840Z,2.62
2016-04-21T02:57:23.168Z,2.54
2016-04-21T02:57:36.480Z,2.58
2016-04-21T02:57:49.824Z,2.52
2016-04-21T02:58:03.168Z,2.66
2016-04-21T02:58:16.484Z,2.6
2016-04-21T02:58:29.828Z,2.7
2016-04-21T02:58:43.141Z,2.7
2016-04-21T02:58:56.484Z,2.55
2016-04-21T02:59:09.814Z,2.66
2016-04-21T02:59:23.127Z,2.67
2016-04-21T02:59:36.689Z,2.69
2016-04-21T02:59:50.018Z,2.58
2016-04-21T03:00:03.361Z,2.58
2016-04-21T03:00:16.708Z,2.62
2016-04-21T03:00:30.067Z,2.55
2016-04-21T03:00:43.396Z,2.55
2016-04-21T03:00:56.724Z,2.54
2016-04-21T03:01:10.070Z,2.59
2016-04-21T03:01:23.399Z,2.52
2016-04-21T03:01:36.727Z,2.49
2016-04-21T03:01:50.070Z,2.55
2016-04-21T03:02:03.430Z,2.47
2016-04-21T03:02:16.760Z,2.59
2016-04-21T03:02:30.338Z,2.54
2016-04-21T03:02:43.651Z,2.62
2016-04-21T03:02:56.979Z,2.58
2016-04-21T03:03:10.294Z,2.55
2016-04-21T03:03:23.638Z,2.54
2016-04-21T03:03:37.169Z,2.66
2016-04-21T03:03:50.529Z,2.62
2016-04-21T03:04:04.044Z,2.59
2016-04-21T03:04:17.375Z,2.6
2016-04-21T03:04:30.688Z,2.58
2016-04-21T03:04:44.000Z,2.59
2016-04-21T03:04:57.344Z,2.59
2016-04-21T03:05:10.659Z,2.58
2016-04-21T03:05:38.127Z,2.54
2016-04-21T03:05:51.424Z,2.58
2016-04-21T03:06:04.955Z,2.59
2016-04-21T03:06:18.677Z,2.54
2016-04-21T03:06:32.037Z,2.59
2016-04-21T03:06:45.349Z,2.52
2016-04-21T03:06:58.677Z,2.54
2016-04-21T03:07:11.992Z,2.6
2016-04-21T03:07:25.695Z,2.55
2016-04-21T03:07:39.023Z,2.45
2016-04-21T03:07:52.382Z,2.55
2016-04-21T03:08:05.710Z,2.63
2016-04-21T03:08:18.995Z,2.51
2016-04-21T03:08:32.338Z,2.55
2016-04-21T03:08:45.854Z,2.6
2016-04-21T03:08:59.167Z,2.59
2016-04-21T03:09:12.483Z,2.52
2016-04-21T03:09:25.811Z,2.54
2016-04-21T03:09:39.139Z,2.55